sensor_id;sensor_type;location;lat;lon;timestamp;P1;durP1;ratioP1;P2;durP2;ratioP2
34982;SDS011;21187;50.976;13.720;2023-07-30T00:01:43;4.95;;;1.35;;
34982;SDS011;21187;50.976;13.720;2023-07-30T00:06:45;4.30;;;1.60;;
34982;SDS011;21187;50.976;13.720;2023-07-30T00:11:47;6.78;;;1.48;;
34982;SDS011;21187;50.976;13.720;2023-07-30T00:16:49;4.40;;;1.50;;
34982;SDS011;21187;50.976;13.720;2023-07-30T00:21:51;4.80;;;1.50;;
34982;SDS011;21187;50.976;13.720;2023-07-30T00:26:53;3.65;;;1.40;;
34982;SDS011;21187;50.976;13.720;2023-07-30T00:31:55;1.80;;;1.27;;
34982;SDS011;21187;50.976;13.720;2023-07-30T00:36:57;7.40;;;1.55;;
34982;SDS011;21187;50.976;13.720;2023-07-30T00:41:59;2.50;;;1.58;;
34982;SDS011;21187;50.976;13.720;2023-07-30T00:47:01;5.15;;;1.40;;
34982;SDS011;21187;50.976;13.720;2023-07-30T00:52:03;2.83;;;1.60;;
34982;SDS011;21187;50.976;13.720;2023-07-30T00:57:05;2.50;;;1.35;;
34982;SDS011;21187;50.976;13.720;2023-07-30T01:02:08;4.88;;;1.58;;
34982;SDS011;21187;50.976;13.720;2023-07-30T01:07:10;3.72;;;1.50;;
34982;SDS011;21187;50.976;13.720;2023-07-30T01:12:13;3.05;;;1.38;;
34982;SDS011;21187;50.976;13.720;2023-07-30T01:17:16;3.85;;;1.73;;
34982;SDS011;21187;50.976;13.720;2023-07-30T01:22:19;2.20;;;1.65;;
34982;SDS011;21187;50.976;13.720;2023-07-30T01:27:24;5.15;;;1.58;;
34982;SDS011;21187;50.976;13.720;2023-07-30T01:32:30;5.73;;;1.70;;
34982;SDS011;21187;50.976;13.720;2023-07-30T01:37:34;2.55;;;1.50;;
34982;SDS011;21187;50.976;13.720;2023-07-30T01:42:37;13.27;;;1.75;;
34982;SDS011;21187;50.976;13.720;2023-07-30T01:47:39;3.03;;;1.75;;
34982;SDS011;21187;50.976;13.720;2023-07-30T01:52:41;3.08;;;1.40;;
34982;SDS011;21187;50.976;13.720;2023-07-30T01:57:43;6.03;;;1.48;;
34982;SDS011;21187;50.976;13.720;2023-07-30T02:02:44;5.25;;;1.77;;
34982;SDS011;21187;50.976;13.720;2023-07-30T02:07:46;4.10;;;1.70;;
34982;SDS011;21187;50.976;13.720;2023-07-30T02:12:48;4.78;;;1.70;;
34982;SDS011;21187;50.976;13.720;2023-07-30T02:17:50;3.83;;;1.55;;
34982;SDS011;21187;50.976;13.720;2023-07-30T02:22:52;2.88;;;1.52;;
34982;SDS011;21187;50.976;13.720;2023-07-30T02:27:54;2.13;;;1.50;;
34982;SDS011;21187;50.976;13.720;2023-07-30T02:32:56;7.32;;;1.80;;
34982;SDS011;21187;50.976;13.720;2023-07-30T02:37:58;3.45;;;1.42;;
34982;SDS011;21187;50.976;13.720;2023-07-30T02:43:00;7.03;;;1.88;;
34982;SDS011;21187;50.976;13.720;2023-07-30T02:48:02;3.30;;;1.50;;
34982;SDS011;21187;50.976;13.720;2023-07-30T02:53:05;2.33;;;1.40;;
34982;SDS011;21187;50.976;13.720;2023-07-30T02:58:07;3.13;;;1.20;;
34982;SDS011;21187;50.976;13.720;2023-07-30T03:03:08;4.03;;;1.73;;
34982;SDS011;21187;50.976;13.720;2023-07-30T03:08:11;1.58;;;1.30;;
34982;SDS011;21187;50.976;13.720;2023-07-30T03:13:13;4.63;;;1.48;;
34982;SDS011;21187;50.976;13.720;2023-07-30T03:18:15;4.72;;;1.25;;
34982;SDS011;21187;50.976;13.720;2023-07-30T03:23:17;1.58;;;1.10;;
34982;SDS011;21187;50.976;13.720;2023-07-30T03:28:19;2.67;;;1.50;;
34982;SDS011;21187;50.976;13.720;2023-07-30T03:33:21;2.50;;;1.50;;
34982;SDS011;21187;50.976;13.720;2023-07-30T03:38:24;5.32;;;1.30;;
34982;SDS011;21187;50.976;13.720;2023-07-30T03:43:26;3.47;;;1.35;;
34982;SDS011;21187;50.976;13.720;2023-07-30T03:48:28;1.63;;;1.27;;
34982;SDS011;21187;50.976;13.720;2023-07-30T03:53:31;4.68;;;1.30;;
34982;SDS011;21187;50.976;13.720;2023-07-30T03:58:33;3.17;;;1.20;;
34982;SDS011;21187;50.976;13.720;2023-07-30T04:03:35;4.30;;;1.10;;
34982;SDS011;21187;50.976;13.720;2023-07-30T04:08:37;3.03;;;1.38;;
34982;SDS011;21187;50.976;13.720;2023-07-30T04:13:40;5.78;;;1.17;;
34982;SDS011;21187;50.976;13.720;2023-07-30T04:18:43;6.03;;;1.33;;
34982;SDS011;21187;50.976;13.720;2023-07-30T04:23:45;2.63;;;1.67;;
34982;SDS011;21187;50.976;13.720;2023-07-30T04:28:47;4.55;;;1.20;;
34982;SDS011;21187;50.976;13.720;2023-07-30T04:33:49;4.43;;;1.65;;
34982;SDS011;21187;50.976;13.720;2023-07-30T04:38:51;4.40;;;1.50;;
34982;SDS011;21187;50.976;13.720;2023-07-30T04:43:56;3.83;;;1.33;;
34982;SDS011;21187;50.976;13.720;2023-07-30T04:49:01;3.15;;;1.42;;
34982;SDS011;21187;50.976;13.720;2023-07-30T04:54:05;3.97;;;1.20;;
34982;SDS011;21187;50.976;13.720;2023-07-30T04:59:07;4.72;;;1.30;;
34982;SDS011;21187;50.976;13.720;2023-07-30T05:04:09;4.07;;;1.52;;
34982;SDS011;21187;50.976;13.720;2023-07-30T05:09:11;1.98;;;1.35;;
34982;SDS011;21187;50.976;13.720;2023-07-30T05:14:13;4.22;;;1.23;;
34982;SDS011;21187;50.976;13.720;2023-07-30T05:19:16;2.35;;;1.45;;
34982;SDS011;21187;50.976;13.720;2023-07-30T05:24:18;3.10;;;1.77;;
34982;SDS011;21187;50.976;13.720;2023-07-30T05:29:20;2.65;;;1.17;;
34982;SDS011;21187;50.976;13.720;2023-07-30T05:34:22;1.85;;;1.45;;
34982;SDS011;21187;50.976;13.720;2023-07-30T05:39:24;2.35;;;1.20;;
34982;SDS011;21187;50.976;13.720;2023-07-30T05:44:26;4.75;;;1.45;;
34982;SDS011;21187;50.976;13.720;2023-07-30T05:49:28;2.63;;;1.33;;
34982;SDS011;21187;50.976;13.720;2023-07-30T05:54:29;1.83;;;1.30;;
34982;SDS011;21187;50.976;13.720;2023-07-30T05:59:31;4.28;;;1.60;;
34982;SDS011;21187;50.976;13.720;2023-07-30T06:04:33;6.00;;;1.40;;
34982;SDS011;21187;50.976;13.720;2023-07-30T06:09:35;4.88;;;1.80;;
34982;SDS011;21187;50.976;13.720;2023-07-30T06:14:37;2.22;;;1.73;;
34982;SDS011;21187;50.976;13.720;2023-07-30T06:19:39;4.18;;;1.42;;
34982;SDS011;21187;50.976;13.720;2023-07-30T06:24:41;2.65;;;1.80;;
34982;SDS011;21187;50.976;13.720;2023-07-30T06:29:43;2.53;;;1.60;;
34982;SDS011;21187;50.976;13.720;2023-07-30T06:34:45;8.90;;;2.05;;
34982;SDS011;21187;50.976;13.720;2023-07-30T06:39:47;3.63;;;1.80;;
34982;SDS011;21187;50.976;13.720;2023-07-30T06:44:49;3.05;;;1.98;;
34982;SDS011;21187;50.976;13.720;2023-07-30T06:49:51;5.63;;;1.90;;
34982;SDS011;21187;50.976;13.720;2023-07-30T06:54:53;4.13;;;1.77;;
34982;SDS011;21187;50.976;13.720;2023-07-30T06:59:55;3.42;;;1.80;;
34982;SDS011;21187;50.976;13.720;2023-07-30T07:04:57;2.80;;;1.60;;
34982;SDS011;21187;50.976;13.720;2023-07-30T07:09:58;2.55;;;1.55;;
34982;SDS011;21187;50.976;13.720;2023-07-30T07:15:00;2.40;;;1.58;;
34982;SDS011;21187;50.976;13.720;2023-07-30T07:20:03;2.50;;;1.70;;
34982;SDS011;21187;50.976;13.720;2023-07-30T07:25:08;2.85;;;1.67;;
34982;SDS011;21187;50.976;13.720;2023-07-30T07:30:10;3.00;;;1.98;;
34982;SDS011;21187;50.976;13.720;2023-07-30T07:35:12;2.28;;;1.50;;
34982;SDS011;21187;50.976;13.720;2023-07-30T07:40:14;1.52;;;1.30;;
34982;SDS011;21187;50.976;13.720;2023-07-30T07:45:16;3.42;;;1.60;;
34982;SDS011;21187;50.976;13.720;2023-07-30T07:50:19;5.10;;;1.10;;
34982;SDS011;21187;50.976;13.720;2023-07-30T07:55:21;1.50;;;1.08;;
34982;SDS011;21187;50.976;13.720;2023-07-30T08:00:23;2.30;;;1.05;;
34982;SDS011;21187;50.976;13.720;2023-07-30T08:05:25;2.28;;;1.48;;
34982;SDS011;21187;50.976;13.720;2023-07-30T08:10:28;3.95;;;1.52;;
34982;SDS011;21187;50.976;13.720;2023-07-30T08:15:30;4.63;;;1.55;;
34982;SDS011;21187;50.976;13.720;2023-07-30T08:20:32;3.88;;;1.25;;
34982;SDS011;21187;50.976;13.720;2023-07-30T08:25:33;2.95;;;1.42;;
34982;SDS011;21187;50.976;13.720;2023-07-30T08:30:35;2.30;;;1.30;;
34982;SDS011;21187;50.976;13.720;2023-07-30T08:35:37;4.82;;;1.13;;
34982;SDS011;21187;50.976;13.720;2023-07-30T08:40:39;4.03;;;1.17;;
34982;SDS011;21187;50.976;13.720;2023-07-30T08:45:41;1.75;;;1.23;;
34982;SDS011;21187;50.976;13.720;2023-07-30T08:50:46;2.22;;;1.30;;
34982;SDS011;21187;50.976;13.720;2023-07-30T08:55:51;1.90;;;1.30;;
34982;SDS011;21187;50.976;13.720;2023-07-30T09:00:56;2.50;;;1.30;;
34982;SDS011;21187;50.976;13.720;2023-07-30T09:05:59;3.25;;;1.35;;
34982;SDS011;21187;50.976;13.720;2023-07-30T09:11:07;2.22;;;1.20;;
34982;SDS011;21187;50.976;13.720;2023-07-30T09:16:10;1.70;;;1.20;;
34982;SDS011;21187;50.976;13.720;2023-07-30T09:21:13;2.47;;;1.40;;
34982;SDS011;21187;50.976;13.720;2023-07-30T09:26:16;1.70;;;1.13;;
34982;SDS011;21187;50.976;13.720;2023-07-30T09:31:17;1.25;;;1.00;;
34982;SDS011;21187;50.976;13.720;2023-07-30T09:36:23;2.10;;;1.27;;
34982;SDS011;21187;50.976;13.720;2023-07-30T09:41:25;2.75;;;1.50;;
34982;SDS011;21187;50.976;13.720;2023-07-30T09:46:28;1.73;;;1.38;;
34982;SDS011;21187;50.976;13.720;2023-07-30T09:51:31;1.77;;;1.55;;
34982;SDS011;21187;50.976;13.720;2023-07-30T09:56:35;2.50;;;1.70;;
34982;SDS011;21187;50.976;13.720;2023-07-30T10:01:43;5.55;;;2.08;;
34982;SDS011;21187;50.976;13.720;2023-07-30T10:06:56;2.72;;;1.88;;
34982;SDS011;21187;50.976;13.720;2023-07-30T10:12:02;2.72;;;1.70;;
34982;SDS011;21187;50.976;13.720;2023-07-30T10:17:09;2.63;;;1.67;;
34982;SDS011;21187;50.976;13.720;2023-07-30T10:27:14;2.35;;;1.95;;
34982;SDS011;21187;50.976;13.720;2023-07-30T10:32:36;3.00;;;1.65;;
34982;SDS011;21187;50.976;13.720;2023-07-30T10:37:44;4.95;;;1.95;;
34982;SDS011;21187;50.976;13.720;2023-07-30T10:42:48;1.98;;;1.42;;
34982;SDS011;21187;50.976;13.720;2023-07-30T10:47:50;2.83;;;1.40;;
34982;SDS011;21187;50.976;13.720;2023-07-30T10:52:52;2.08;;;1.60;;
34982;SDS011;21187;50.976;13.720;2023-07-30T10:57:55;1.98;;;1.33;;
34982;SDS011;21187;50.976;13.720;2023-07-30T11:02:57;3.47;;;1.40;;
34982;SDS011;21187;50.976;13.720;2023-07-30T11:07:59;2.15;;;1.40;;
34982;SDS011;21187;50.976;13.720;2023-07-30T11:13:01;3.35;;;1.25;;
34982;SDS011;21187;50.976;13.720;2023-07-30T11:18:03;1.52;;;0.90;;
34982;SDS011;21187;50.976;13.720;2023-07-30T11:23:21;1.30;;;0.80;;
34982;SDS011;21187;50.976;13.720;2023-07-30T11:28:34;1.33;;;0.90;;
34982;SDS011;21187;50.976;13.720;2023-07-30T11:33:41;4.25;;;1.10;;
34982;SDS011;21187;50.976;13.720;2023-07-30T11:38:48;5.32;;;0.82;;
34982;SDS011;21187;50.976;13.720;2023-07-30T11:43:51;6.50;;;0.90;;
34982;SDS011;21187;50.976;13.720;2023-07-30T11:48:54;1.33;;;0.80;;
34982;SDS011;21187;50.976;13.720;2023-07-30T11:54:20;3.00;;;0.60;;
34982;SDS011;21187;50.976;13.720;2023-07-30T11:59:24;3.78;;;0.88;;
34982;SDS011;21187;50.976;13.720;2023-07-30T12:04:30;2.22;;;0.82;;
34982;SDS011;21187;50.976;13.720;2023-07-30T12:10:10;9.75;;;3.13;;
34982;SDS011;21187;50.976;13.720;2023-07-30T12:15:14;1.42;;;0.63;;
34982;SDS011;21187;50.976;13.720;2023-07-30T12:20:16;1.00;;;0.60;;
34982;SDS011;21187;50.976;13.720;2023-07-30T12:25:20;4.65;;;0.90;;
34982;SDS011;21187;50.976;13.720;2023-07-30T12:30:22;2.17;;;0.75;;
34982;SDS011;21187;50.976;13.720;2023-07-30T12:35:25;2.85;;;0.50;;
34982;SDS011;21187;50.976;13.720;2023-07-30T12:40:27;0.50;;;0.50;;
34982;SDS011;21187;50.976;13.720;2023-07-30T12:45:35;2.35;;;0.80;;
34982;SDS011;21187;50.976;13.720;2023-07-30T12:50:37;2.08;;;0.60;;
34982;SDS011;21187;50.976;13.720;2023-07-30T12:55:39;0.77;;;0.52;;
34982;SDS011;21187;50.976;13.720;2023-07-30T13:00:42;0.85;;;0.55;;
34982;SDS011;21187;50.976;13.720;2023-07-30T13:05:44;1.00;;;0.68;;
34982;SDS011;21187;50.976;13.720;2023-07-30T13:10:46;0.93;;;0.90;;
34982;SDS011;21187;50.976;13.720;2023-07-30T13:15:48;1.08;;;0.77;;
34982;SDS011;21187;50.976;13.720;2023-07-30T13:20:50;1.25;;;0.73;;
34982;SDS011;21187;50.976;13.720;2023-07-30T13:25:52;2.58;;;0.70;;
34982;SDS011;21187;50.976;13.720;2023-07-30T13:30:54;3.22;;;0.80;;
34982;SDS011;21187;50.976;13.720;2023-07-30T13:35:57;0.73;;;0.70;;
34982;SDS011;21187;50.976;13.720;2023-07-30T13:41:00;3.90;;;0.70;;
34982;SDS011;21187;50.976;13.720;2023-07-30T13:46:02;2.65;;;0.68;;
34982;SDS011;21187;50.976;13.720;2023-07-30T13:51:04;1.13;;;0.80;;
34982;SDS011;21187;50.976;13.720;2023-07-30T13:56:06;1.05;;;0.73;;
34982;SDS011;21187;50.976;13.720;2023-07-30T14:01:08;1.00;;;0.80;;
34982;SDS011;21187;50.976;13.720;2023-07-30T14:06:11;1.65;;;1.02;;
34982;SDS011;21187;50.976;13.720;2023-07-30T14:11:13;0.82;;;0.60;;
34982;SDS011;21187;50.976;13.720;2023-07-30T14:16:16;1.45;;;0.90;;
34982;SDS011;21187;50.976;13.720;2023-07-30T14:21:18;3.92;;;1.00;;
34982;SDS011;21187;50.976;13.720;2023-07-30T14:26:20;2.00;;;0.98;;
34982;SDS011;21187;50.976;13.720;2023-07-30T14:31:22;1.00;;;0.60;;
34982;SDS011;21187;50.976;13.720;2023-07-30T14:36:23;1.25;;;0.70;;
34982;SDS011;21187;50.976;13.720;2023-07-30T14:41:25;1.10;;;1.00;;
34982;SDS011;21187;50.976;13.720;2023-07-30T14:46:27;1.65;;;0.88;;
34982;SDS011;21187;50.976;13.720;2023-07-30T14:51:29;2.13;;;0.90;;
34982;SDS011;21187;50.976;13.720;2023-07-30T14:56:31;3.80;;;0.80;;
34982;SDS011;21187;50.976;13.720;2023-07-30T15:01:34;1.35;;;0.88;;
34982;SDS011;21187;50.976;13.720;2023-07-30T15:06:36;0.73;;;0.70;;
34982;SDS011;21187;50.976;13.720;2023-07-30T15:11:39;1.55;;;0.90;;
34982;SDS011;21187;50.976;13.720;2023-07-30T15:16:41;8.93;;;1.10;;
34982;SDS011;21187;50.976;13.720;2023-07-30T15:21:44;1.27;;;0.90;;
34982;SDS011;21187;50.976;13.720;2023-07-30T15:26:46;1.25;;;1.15;;
34982;SDS011;21187;50.976;13.720;2023-07-30T15:31:48;4.95;;;0.88;;
34982;SDS011;21187;50.976;13.720;2023-07-30T15:36:52;1.10;;;0.90;;
34982;SDS011;21187;50.976;13.720;2023-07-30T15:41:53;1.85;;;1.00;;
34982;SDS011;21187;50.976;13.720;2023-07-30T15:46:55;2.25;;;1.13;;
34982;SDS011;21187;50.976;13.720;2023-07-30T15:51:58;1.52;;;0.95;;
34982;SDS011;21187;50.976;13.720;2023-07-30T15:57:00;2.75;;;1.10;;
34982;SDS011;21187;50.976;13.720;2023-07-30T16:02:02;1.98;;;1.25;;
34982;SDS011;21187;50.976;13.720;2023-07-30T16:07:05;3.13;;;0.95;;
34982;SDS011;21187;50.976;13.720;2023-07-30T16:12:07;5.60;;;0.93;;
34982;SDS011;21187;50.976;13.720;2023-07-30T16:17:10;0.85;;;0.68;;
34982;SDS011;21187;50.976;13.720;2023-07-30T16:22:12;1.45;;;0.80;;
34982;SDS011;21187;50.976;13.720;2023-07-30T16:27:15;1.55;;;1.00;;
34982;SDS011;21187;50.976;13.720;2023-07-30T16:32:18;3.53;;;1.00;;
34982;SDS011;21187;50.976;13.720;2023-07-30T16:37:21;7.45;;;1.10;;
34982;SDS011;21187;50.976;13.720;2023-07-30T16:42:24;2.33;;;0.70;;
34982;SDS011;21187;50.976;13.720;2023-07-30T16:47:26;2.08;;;1.05;;
34982;SDS011;21187;50.976;13.720;2023-07-30T16:52:28;2.58;;;1.35;;
34982;SDS011;21187;50.976;13.720;2023-07-30T16:57:31;6.97;;;0.88;;
34982;SDS011;21187;50.976;13.720;2023-07-30T17:02:34;2.75;;;0.77;;
34982;SDS011;21187;50.976;13.720;2023-07-30T17:07:36;1.48;;;0.50;;
34982;SDS011;21187;50.976;13.720;2023-07-30T17:12:39;0.70;;;0.70;;
34982;SDS011;21187;50.976;13.720;2023-07-30T17:17:41;1.00;;;0.85;;
34982;SDS011;21187;50.976;13.720;2023-07-30T17:22:44;0.88;;;0.65;;
34982;SDS011;21187;50.976;13.720;2023-07-30T17:27:47;4.10;;;0.88;;
34982;SDS011;21187;50.976;13.720;2023-07-30T17:32:49;2.90;;;0.88;;
34982;SDS011;21187;50.976;13.720;2023-07-30T17:37:52;1.65;;;0.60;;
34982;SDS011;21187;50.976;13.720;2023-07-30T17:42:54;2.38;;;0.88;;
34982;SDS011;21187;50.976;13.720;2023-07-30T17:47:57;1.98;;;0.80;;
34982;SDS011;21187;50.976;13.720;2023-07-30T17:53:00;1.30;;;0.70;;
34982;SDS011;21187;50.976;13.720;2023-07-30T17:58:02;1.55;;;0.90;;
34982;SDS011;21187;50.976;13.720;2023-07-30T18:03:05;6.40;;;0.90;;
34982;SDS011;21187;50.976;13.720;2023-07-30T18:08:08;2.03;;;1.10;;
34982;SDS011;21187;50.976;13.720;2023-07-30T18:13:11;1.92;;;0.75;;
34982;SDS011;21187;50.976;13.720;2023-07-30T18:18:14;2.95;;;0.95;;
34982;SDS011;21187;50.976;13.720;2023-07-30T18:23:16;3.42;;;0.90;;
34982;SDS011;21187;50.976;13.720;2023-07-30T18:28:18;2.03;;;0.95;;
34982;SDS011;21187;50.976;13.720;2023-07-30T18:33:20;2.17;;;0.82;;
34982;SDS011;21187;50.976;13.720;2023-07-30T18:38:22;4.32;;;1.05;;
34982;SDS011;21187;50.976;13.720;2023-07-30T18:43:24;1.52;;;1.15;;
34982;SDS011;21187;50.976;13.720;2023-07-30T18:48:27;2.97;;;1.33;;
34982;SDS011;21187;50.976;13.720;2023-07-30T18:53:33;4.00;;;1.13;;
34982;SDS011;21187;50.976;13.720;2023-07-30T18:58:35;2.63;;;1.02;;
34982;SDS011;21187;50.976;13.720;2023-07-30T19:03:37;2.65;;;0.95;;
34982;SDS011;21187;50.976;13.720;2023-07-30T19:08:39;1.55;;;1.20;;
34982;SDS011;21187;50.976;13.720;2023-07-30T19:13:41;3.17;;;1.20;;
34982;SDS011;21187;50.976;13.720;2023-07-30T19:18:43;1.80;;;1.02;;
34982;SDS011;21187;50.976;13.720;2023-07-30T19:23:45;2.88;;;1.20;;
34982;SDS011;21187;50.976;13.720;2023-07-30T19:28:47;5.30;;;1.10;;
34982;SDS011;21187;50.976;13.720;2023-07-30T19:33:49;4.75;;;1.33;;
34982;SDS011;21187;50.976;13.720;2023-07-30T19:38:50;4.00;;;1.40;;
34982;SDS011;21187;50.976;13.720;2023-07-30T19:43:53;4.20;;;1.30;;
34982;SDS011;21187;50.976;13.720;2023-07-30T19:48:55;3.97;;;1.90;;
34982;SDS011;21187;50.976;13.720;2023-07-30T19:53:58;2.28;;;1.45;;
34982;SDS011;21187;50.976;13.720;2023-07-30T19:59:00;6.20;;;1.70;;
34982;SDS011;21187;50.976;13.720;2023-07-30T20:04:01;4.30;;;1.40;;
34982;SDS011;21187;50.976;13.720;2023-07-30T20:09:04;3.05;;;1.38;;
34982;SDS011;21187;50.976;13.720;2023-07-30T20:14:05;4.13;;;1.70;;
34982;SDS011;21187;50.976;13.720;2023-07-30T20:19:08;3.30;;;1.48;;
34982;SDS011;21187;50.976;13.720;2023-07-30T20:24:10;5.78;;;1.52;;
34982;SDS011;21187;50.976;13.720;2023-07-30T20:29:12;4.15;;;1.77;;
34982;SDS011;21187;50.976;13.720;2023-07-30T20:34:15;6.95;;;1.63;;
34982;SDS011;21187;50.976;13.720;2023-07-30T20:39:19;4.50;;;1.98;;
34982;SDS011;21187;50.976;13.720;2023-07-30T20:44:22;3.83;;;1.63;;
34982;SDS011;21187;50.976;13.720;2023-07-30T20:49:27;5.50;;;1.65;;
34982;SDS011;21187;50.976;13.720;2023-07-30T20:54:32;4.80;;;1.67;;
34982;SDS011;21187;50.976;13.720;2023-07-30T20:59:35;5.90;;;1.83;;
34982;SDS011;21187;50.976;13.720;2023-07-30T21:04:37;3.35;;;1.80;;
34982;SDS011;21187;50.976;13.720;2023-07-30T21:09:39;5.22;;;1.48;;
34982;SDS011;21187;50.976;13.720;2023-07-30T21:14:41;3.72;;;1.60;;
34982;SDS011;21187;50.976;13.720;2023-07-30T21:19:43;8.23;;;2.03;;
34982;SDS011;21187;50.976;13.720;2023-07-30T21:24:51;5.82;;;1.63;;
34982;SDS011;21187;50.976;13.720;2023-07-30T21:29:53;4.43;;;1.70;;
34982;SDS011;21187;50.976;13.720;2023-07-30T21:34:55;2.88;;;1.50;;
34982;SDS011;21187;50.976;13.720;2023-07-30T21:39:58;6.70;;;1.65;;
34982;SDS011;21187;50.976;13.720;2023-07-30T21:45:00;5.13;;;1.40;;
34982;SDS011;21187;50.976;13.720;2023-07-30T21:50:02;4.68;;;1.42;;
34982;SDS011;21187;50.976;13.720;2023-07-30T21:55:05;3.15;;;1.27;;
34982;SDS011;21187;50.976;13.720;2023-07-30T22:00:08;3.17;;;1.13;;
34982;SDS011;21187;50.976;13.720;2023-07-30T22:05:10;3.10;;;0.90;;
34982;SDS011;21187;50.976;13.720;2023-07-30T22:10:12;8.07;;;1.33;;
34982;SDS011;21187;50.976;13.720;2023-07-30T22:15:15;3.50;;;1.35;;
34982;SDS011;21187;50.976;13.720;2023-07-30T22:20:17;2.63;;;1.25;;
34982;SDS011;21187;50.976;13.720;2023-07-30T22:25:19;5.75;;;1.52;;
34982;SDS011;21187;50.976;13.720;2023-07-30T22:30:21;4.55;;;1.60;;
34982;SDS011;21187;50.976;13.720;2023-07-30T22:35:23;3.95;;;1.25;;
34982;SDS011;21187;50.976;13.720;2023-07-30T22:40:26;5.13;;;1.40;;
34982;SDS011;21187;50.976;13.720;2023-07-30T22:45:28;5.35;;;1.70;;
34982;SDS011;21187;50.976;13.720;2023-07-30T22:50:30;5.05;;;1.88;;
34982;SDS011;21187;50.976;13.720;2023-07-30T22:55:32;4.03;;;1.25;;
34982;SDS011;21187;50.976;13.720;2023-07-30T23:00:34;3.50;;;1.13;;
34982;SDS011;21187;50.976;13.720;2023-07-30T23:05:37;8.45;;;1.45;;
34982;SDS011;21187;50.976;13.720;2023-07-30T23:10:39;8.40;;;1.23;;
34982;SDS011;21187;50.976;13.720;2023-07-30T23:15:41;4.53;;;1.20;;
34982;SDS011;21187;50.976;13.720;2023-07-30T23:20:43;4.47;;;1.40;;
34982;SDS011;21187;50.976;13.720;2023-07-30T23:25:45;7.25;;;1.45;;
34982;SDS011;21187;50.976;13.720;2023-07-30T23:30:47;6.85;;;1.42;;
34982;SDS011;21187;50.976;13.720;2023-07-30T23:35:49;5.28;;;1.08;;
34982;SDS011;21187;50.976;13.720;2023-07-30T23:40:51;7.10;;;1.48;;
34982;SDS011;21187;50.976;13.720;2023-07-30T23:45:53;5.07;;;1.30;;
34982;SDS011;21187;50.976;13.720;2023-07-30T23:50:55;2.30;;;1.10;;
34982;SDS011;21187;50.976;13.720;2023-07-30T23:56:06;6.88;;;1.65;;
